Time;durP1;ratioP1;P1;durP2;ratioP2;P2;SDS_P1;SDS_P2;PMS_P1;PMS_P2;Temp;Humidity;BMP_temperature;BMP_pressure;BME280_temperature;BME280_humidity;BME280_pressure;Samples;Min_cycle;Max_cycle;Signal;HPM_P1;HPM_P2
2023/06/10 00:02:57;;;;;;;;;;;;;;;16.85;76.69;100423.75;5116668;28;20423;-81
2023/06/10 00:06:00;;;;;;;;;;;;;;;16.79;76.88;100424.25;5116441;28;19938;-80
2023/06/10 00:09:09;;;;;;;;;;;;;;;16.77;77.28;100420.88;5116773;28;19942;-81
2023/06/10 00:12:12;;;;;;;;;;;;;;;16.78;77.35;100425.19;5116459;28;20342;-80
2023/06/10 00:15:15;;;;;;;;;;;;;;;16.80;77.25;100428.56;5116363;28;20382;-81
2023/06/10 00:18:21;;;;;;;;;;;;;;;16.71;77.58;100426.63;5116209;28;20282;-81
2023/06/10 00:21:24;;;;;;;;;;;;;;;16.77;77.29;100427.97;5116350;28;19934;-81
2023/06/10 00:24:27;;;;;;;;;;;;;;;16.74;77.18;100418.44;5116232;28;19922;-81
2023/06/10 00:27:34;;;;;;;;;;;;;;;16.62;77.55;100425.53;5116217;28;19956;-81
2023/06/10 00:30:37;;;;;;;;;;;;;;;16.62;77.23;100424.69;5116147;28;19966;-81
2023/06/10 00:33:40;;;;;;;;;;;;;;;16.43;77.56;100431.44;5103321;28;19941;-81
2023/06/10 00:36:43;;;;;;;;;;;;;;;16.46;77.49;100432.97;5116131;28;19923;-81
2023/06/10 00:39:46;;;;;;;;;;;;;;;16.37;78.33;100428.41;5103239;28;19923;-81
2023/06/10 00:42:49;;;;;;;;;;;;;;;16.40;78.03;100426.41;5103294;28;20294;-81
2023/06/10 00:45:54;;;;;;;;;;;;;;;16.55;77.07;100420.88;5115888;28;19922;-82
2023/06/10 00:48:57;;;;;;;;;;;;;;;16.31;77.72;100427.13;5115792;28;19922;-82
2023/06/10 00:52:02;;;;;;;;;;;;;;;16.20;78.64;100435.00;5115614;28;19942;-83
2023/06/10 00:55:05;;;;;;;;;;;;;;;16.15;78.33;100438.03;5102930;28;19942;-83
2023/06/10 00:58:08;;;;;;;;;;;;;;;16.19;77.60;100433.34;5103256;28;20413;-82
2023/06/10 01:01:12;;;;;;;;;;;;;;;16.07;78.30;100437.75;5102488;28;19923;-82
2023/06/10 01:04:19;;;;;;;;;;;;;;;16.08;78.67;100431.53;5115456;28;20389;-82
2023/06/10 01:07:31;;;;;;;;;;;;;;;16.16;78.40;100429.13;5115554;28;19977;-81
2023/06/10 01:10:52;;;;;;;;;;;;;;;16.02;78.75;100435.50;5115270;28;19923;-82
2023/06/10 01:13:58;;;;;;;;;;;;;;;16.02;78.90;100440.75;5115629;28;19926;-81
2023/06/10 01:17:03;;;;;;;;;;;;;;;16.02;78.65;100427.56;5114961;28;19926;-81
2023/06/10 01:20:11;;;;;;;;;;;;;;;15.88;78.86;100438.31;5102712;28;19922;-81
2023/06/10 01:23:15;;;;;;;;;;;;;;;15.82;79.24;100441.41;5115195;28;19955;-82
2023/06/10 01:26:20;;;;;;;;;;;;;;;15.87;79.15;100434.00;5102517;28;19925;-81
2023/06/10 01:29:37;;;;;;;;;;;;;;;15.91;78.97;100443.34;5115238;28;19983;-81
2023/06/10 01:32:44;;;;;;;;;;;;;;;15.81;78.87;100440.56;5114710;28;20329;-81
2023/06/10 01:35:48;;;;;;;;;;;;;;;15.70;79.04;100440.56;5114801;28;20007;-81
2023/06/10 01:38:53;;;;;;;;;;;;;;;15.61;79.69;100449.13;5114668;28;20390;-81
2023/06/10 01:41:56;;;;;;;;;;;;;;;15.56;79.48;100441.53;5114581;28;20290;-81
2023/06/10 01:44:59;;;;;;;;;;;;;;;15.57;79.36;100442.38;5101870;28;19922;-81
2023/06/10 01:48:03;;;;;;;;;;;;;;;15.59;79.50;100446.59;5101966;28;20334;-81
2023/06/10 01:51:06;;;;;;;;;;;;;;;15.53;79.77;100440.94;5101750;28;19923;-81
2023/06/10 01:54:09;;;;;;;;;;;;;;;15.46;79.74;100443.19;5114352;28;19927;-81
2023/06/10 01:57:12;;;;;;;;;;;;;;;15.44;79.79;100447.72;5114202;28;20496;-81
2023/06/10 02:00:15;;;;;;;;;;;;;;;15.39;79.80;100444.59;5101542;28;20015;-83
2023/06/10 02:03:20;;;;;;;;;;;;;;;15.39;79.80;100447.22;5114103;28;20010;-83
2023/06/10 02:06:23;;;;;;;;;;;;;;;15.32;80.14;100446.84;5114111;28;19939;-82
2023/06/10 02:09:30;;;;;;;;;;;;;;;15.31;80.04;100452.22;5114454;28;19968;-82
2023/06/10 02:12:34;;;;;;;;;;;;;;;15.25;80.11;100453.53;5113410;28;19985;-82
2023/06/10 02:15:40;;;;;;;;;;;;;;;15.26;80.31;100446.47;5101359;28;19938;-82
2023/06/10 02:18:43;;;;;;;;;;;;;;;15.22;80.35;100458.16;5101128;28;19926;-82
2023/06/10 02:21:46;;;;;;;;;;;;;;;15.18;80.33;100454.06;5101208;28;19992;-83
2023/06/10 02:24:49;;;;;;;;;;;;;;;15.10;80.35;100454.63;5101112;28;20386;-83
2023/06/10 02:27:52;;;;;;;;;;;;;;;15.04;80.92;100455.06;5101091;28;20410;-83
2023/06/10 02:30:56;;;;;;;;;;;;;;;14.99;81.00;100450.13;5101056;28;19923;-83
2023/06/10 02:34:00;;;;;;;;;;;;;;;15.02;80.81;100454.31;5101033;28;20324;-82
2023/06/10 02:37:03;;;;;;;;;;;;;;;15.04;80.63;100453.28;5101090;28;19922;-81
2023/06/10 02:40:08;;;;;;;;;;;;;;;15.00;80.84;100458.88;5101038;28;20004;-81
2023/06/10 02:43:12;;;;;;;;;;;;;;;14.89;80.80;100463.09;5101040;28;19980;-81
2023/06/10 02:46:15;;;;;;;;;;;;;;;14.90;80.76;100471.88;5100943;28;19941;-81
2023/06/10 02:49:22;;;;;;;;;;;;;;;14.87;81.02;100467.66;5100872;28;19923;-82
2023/06/10 02:52:25;;;;;;;;;;;;;;;14.83;81.33;100462.69;5100723;28;20394;-82
2023/06/10 02:55:29;;;;;;;;;;;;;;;14.91;80.78;100464.81;5100664;28;19927;-82
2023/06/10 02:58:41;;;;;;;;;;;;;;;14.89;80.74;100473.63;5101270;28;20000;-82
2023/06/10 03:01:46;;;;;;;;;;;;;;;14.87;80.35;100474.72;5100665;28;19923;-82
2023/06/10 03:04:50;;;;;;;;;;;;;;;14.74;81.04;100471.25;5100600;28;19962;-81
2023/06/10 03:07:56;;;;;;;;;;;;;;;14.73;81.29;100473.03;5113654;28;19962;-81
2023/06/10 03:11:00;;;;;;;;;;;;;;;14.74;81.37;100471.25;5100558;28;19922;-81
2023/06/10 03:14:03;;;;;;;;;;;;;;;14.72;80.81;100475.78;5100930;28;19945;-81
2023/06/10 03:17:08;;;;;;;;;;;;;;;14.67;81.07;100478.72;5088716;28;19949;-81
2023/06/10 03:20:14;;;;;;;;;;;;;;;14.61;81.41;100473.88;5100535;28;19940;-81
2023/06/10 03:23:19;;;;;;;;;;;;;;;14.61;81.46;100477.38;5100523;28;19923;-81
2023/06/10 03:26:22;;;;;;;;;;;;;;;14.56;81.93;100476.84;5104449;28;19961;-80
2023/06/10 03:29:25;;;;;;;;;;;;;;;14.61;81.25;100485.28;5104625;28;19960;-80
2023/06/10 03:32:32;;;;;;;;;;;;;;;14.54;81.14;100483.16;5104608;28;20440;-81
2023/06/10 03:35:36;;;;;;;;;;;;;;;14.51;81.80;100481.59;5104740;28;19923;-81
2023/06/10 03:38:40;;;;;;;;;;;;;;;14.54;81.46;100481.38;5104319;28;19922;-81
2023/06/10 03:41:44;;;;;;;;;;;;;;;14.52;81.50;100482.44;5092834;28;20290;-81
2023/06/10 03:44:49;;;;;;;;;;;;;;;14.44;81.84;100477.66;5104456;28;20370;-81
2023/06/10 03:47:52;;;;;;;;;;;;;;;14.42;82.10;100482.19;5104355;28;19923;-81
2023/06/10 03:50:59;;;;;;;;;;;;;;;14.45;82.17;100481.13;5104172;28;19961;-81
2023/06/10 03:54:03;;;;;;;;;;;;;;;14.49;81.96;100475.56;5117109;28;19942;-81
2023/06/10 03:57:06;;;;;;;;;;;;;;;14.39;82.27;100490.31;5104095;28;19923;-80
2023/06/10 04:00:14;;;;;;;;;;;;;;;14.28;82.77;100487.56;5104006;28;19923;-80
2023/06/10 04:03:21;;;;;;;;;;;;;;;14.24;83.26;100496.63;5116932;28;19926;-80
2023/06/10 04:06:28;;;;;;;;;;;;;;;14.30;83.08;100488.31;5103912;28;19966;-80
2023/06/10 04:09:32;;;;;;;;;;;;;;;14.34;82.92;100480.09;5103861;28;19922;-80
2023/06/10 04:12:35;;;;;;;;;;;;;;;14.36;82.93;100495.78;5116329;28;19942;-80
2023/06/10 04:15:38;;;;;;;;;;;;;;;14.41;82.48;100496.28;5103753;28;19927;-81
2023/06/10 04:18:45;;;;;;;;;;;;;;;14.49;82.18;100491.34;5103396;28;20341;-81
2023/06/10 04:21:49;;;;;;;;;;;;;;;14.46;82.48;100499.47;5103663;28;19923;-81
2023/06/10 04:24:52;;;;;;;;;;;;;;;14.67;81.26;100499.78;5116001;28;19976;-82
2023/06/10 04:27:58;;;;;;;;;;;;;;;14.51;82.26;100500.00;5103392;28;20372;-81
2023/06/10 04:31:03;;;;;;;;;;;;;;;14.44;82.75;100501.34;5103398;28;20015;-81
2023/06/10 04:34:07;;;;;;;;;;;;;;;14.39;83.05;100511.38;5103326;28;20298;-82
2023/06/10 04:37:10;;;;;;;;;;;;;;;14.49;82.61;100509.78;5102612;28;20413;-81
2023/06/10 04:40:13;;;;;;;;;;;;;;;14.44;82.83;100509.25;5115968;28;20435;-81
2023/06/10 04:43:17;;;;;;;;;;;;;;;14.44;83.18;100506.59;5103132;28;20022;-81
2023/06/10 04:46:23;;;;;;;;;;;;;;;14.40;83.11;100507.78;5115808;28;20356;-81
2023/06/10 04:49:26;;;;;;;;;;;;;;;14.40;82.92;100505.16;5102931;28;20401;-81
2023/06/10 04:52:30;;;;;;;;;;;;;;;14.55;82.21;100503.25;5103218;28;20409;-81
2023/06/10 04:55:34;;;;;;;;;;;;;;;14.56;82.22;100504.97;5103032;28;20015;-82
2023/06/10 04:58:40;;;;;;;;;;;;;;;14.59;81.98;100515.28;5115702;28;20389;-82
2023/06/10 05:01:43;;;;;;;;;;;;;;;14.92;80.97;100513.88;5115517;28;19922;-81
2023/06/10 05:04:45;;;;;;;;;;;;;;;15.03;79.85;100517.44;5115459;28;19923;-80
2023/06/10 05:07:49;;;;;;;;;;;;;;;15.10;79.78;100515.19;5115419;28;20006;-81
2023/06/10 05:10:52;;;;;;;;;;;;;;;15.33;78.67;100517.00;5115320;28;19968;-81
2023/06/10 05:13:55;;;;;;;;;;;;;;;15.40;78.35;100514.78;5115199;28;19927;-82
2023/06/10 05:16:58;;;;;;;;;;;;;;;15.51;78.49;100512.22;5114968;28;19926;-80
2023/06/10 05:20:01;;;;;;;;;;;;;;;15.57;78.10;100516.16;5115176;28;19973;-81
2023/06/10 05:23:09;;;;;;;;;;;;;;;15.61;78.55;100516.81;5115105;28;19927;-79
2023/06/10 05:26:13;;;;;;;;;;;;;;;15.67;78.61;100524.31;5114875;28;19923;-79
2023/06/10 05:29:16;;;;;;;;;;;;;;;15.71;78.45;100517.84;5115334;28;19922;-80
2023/06/10 05:32:19;;;;;;;;;;;;;;;15.82;77.95;100520.50;5114805;28;19927;-80
2023/06/10 05:35:24;;;;;;;;;;;;;;;15.93;76.93;100510.03;5114791;28;20008;-80
2023/06/10 05:38:27;;;;;;;;;;;;;;;16.06;76.54;100506.47;5114794;28;19968;-80
2023/06/10 05:41:30;;;;;;;;;;;;;;;16.11;76.89;100504.31;5115079;28;19930;-81
2023/06/10 05:44:34;;;;;;;;;;;;;;;16.30;76.30;100503.75;5114883;28;19968;-82
2023/06/10 05:47:37;;;;;;;;;;;;;;;16.39;75.88;100500.41;5114569;28;19923;-74
2023/06/10 05:50:42;;;;;;;;;;;;;;;16.50;75.79;100506.53;5114561;28;19977;-77
2023/06/10 05:53:46;;;;;;;;;;;;;;;16.55;76.94;100503.53;5114289;28;20352;-77
2023/06/10 05:56:49;;;;;;;;;;;;;;;16.63;77.77;100505.59;5114435;28;19922;-77
2023/06/10 05:59:51;;;;;;;;;;;;;;;16.73;76.72;100501.28;5114510;28;19922;-77
2023/06/10 06:02:57;;;;;;;;;;;;;;;16.83;75.49;100499.63;5114267;28;20003;-77
2023/06/10 06:06:01;;;;;;;;;;;;;;;16.97;75.28;100490.59;5114211;28;19923;-77
2023/06/10 06:09:07;;;;;;;;;;;;;;;17.11;75.54;100489.50;5114140;28;19961;-77
2023/06/10 06:12:10;;;;;;;;;;;;;;;17.24;75.44;100495.47;5114077;28;20429;-77
2023/06/10 06:15:15;;;;;;;;;;;;;;;17.24;75.65;100492.84;5114029;28;20396;-77
2023/06/10 06:18:25;;;;;;;;;;;;;;;17.36;76.16;100489.19;5101137;28;19965;-77
2023/06/10 06:21:27;;;;;;;;;;;;;;;17.48;75.19;100487.34;5113865;28;19926;-78
2023/06/10 06:24:33;;;;;;;;;;;;;;;17.56;75.50;100484.09;5114099;28;19968;-76
2023/06/10 06:27:36;;;;;;;;;;;;;;;17.67;75.05;100490.16;5113839;28;19968;-77
2023/06/10 06:30:41;;;;;;;;;;;;;;;17.77;74.48;100484.13;5113739;28;20003;-77
2023/06/10 06:33:44;;;;;;;;;;;;;;;17.82;75.77;100482.78;5113738;28;19984;-77
2023/06/10 06:36:47;;;;;;;;;;;;;;;18.00;75.43;100492.81;5113667;28;20441;-81
2023/06/10 06:39:53;;;;;;;;;;;;;;;18.14;75.44;100495.13;5100285;28;19947;-76
2023/06/10 06:42:56;;;;;;;;;;;;;;;18.26;74.43;100504.69;5113523;28;19923;-78
2023/06/10 06:46:25;;;;;;;;;;;;;;;18.36;73.30;100499.44;5113522;28;19922;-72
2023/06/10 06:49:30;;;;;;;;;;;;;;;18.44;73.07;100504.06;5113622;28;20283;-74
2023/06/10 06:52:36;;;;;;;;;;;;;;;18.52;72.82;100505.09;5113513;28;19973;-73
2023/06/10 06:55:39;;;;;;;;;;;;;;;18.64;70.55;100500.56;5113330;28;19977;-73
2023/06/10 06:58:43;;;;;;;;;;;;;;;18.86;68.80;100493.41;5100507;28;19939;-72
2023/06/10 07:01:49;;;;;;;;;;;;;;;19.12;65.88;100494.63;5113417;28;19923;-74
2023/06/10 07:04:55;;;;;;;;;;;;;;;19.21;64.94;100496.44;5113270;28;19934;-76
2023/06/10 07:07:58;;;;;;;;;;;;;;;19.27;65.03;100495.91;5113679;28;20008;-76
2023/06/10 07:11:01;;;;;;;;;;;;;;;19.31;64.35;100503.59;5113291;28;20068;-74
2023/06/10 07:14:04;;;;;;;;;;;;;;;19.45;63.19;100497.88;5100616;28;20034;-74
2023/06/10 07:17:07;;;;;;;;;;;;;;;19.56;62.40;100494.25;5112861;28;20339;-74
2023/06/10 07:20:10;;;;;;;;;;;;;;;19.59;61.91;100500.13;5113089;28;19922;-74
2023/06/10 07:23:13;;;;;;;;;;;;;;;19.68;60.71;100493.16;5113111;28;19922;-78
2023/06/10 07:26:16;;;;;;;;;;;;;;;19.77;60.20;100507.41;5113128;28;19966;-74
2023/06/10 07:29:22;;;;;;;;;;;;;;;19.85;60.63;100510.22;5113072;28;19923;-74
2023/06/10 07:32:25;;;;;;;;;;;;;;;19.87;60.27;100509.06;5113092;28;19942;-77
2023/06/10 07:35:27;;;;;;;;;;;;;;;19.98;60.44;100513.41;5113297;28;19923;-74
2023/06/10 07:38:30;;;;;;;;;;;;;;;20.07;59.82;100499.28;5112966;28;20015;-75
2023/06/10 07:41:33;;;;;;;;;;;;;;;20.09;59.07;100505.28;5112955;28;19996;-76
2023/06/10 07:44:36;;;;;;;;;;;;;;;20.24;59.84;100508.34;5100449;28;19923;-73
2023/06/10 07:47:40;;;;;;;;;;;;;;;20.28;60.01;100507.06;5113179;28;20333;-76
2023/06/10 07:50:43;;;;;;;;;;;;;;;20.42;59.39;100497.78;5112981;28;19923;-77
2023/06/10 07:53:47;;;;;;;;;;;;;;;20.58;58.33;100498.09;5113024;28;19989;-76
2023/06/10 07:56:52;;;;;;;;;;;;;;;20.67;56.58;100502.50;5113124;28;19966;-76
2023/06/10 07:59:57;;;;;;;;;;;;;;;20.73;57.46;100494.94;5112926;28;20008;-75
2023/06/10 08:03:01;;;;;;;;;;;;;;;20.82;56.39;100497.53;5112870;28;19977;-74
2023/06/10 08:06:05;;;;;;;;;;;;;;;20.93;56.79;100493.00;5100363;28;19926;-76
2023/06/10 08:09:11;;;;;;;;;;;;;;;21.01;56.35;100488.63;5112947;28;19922;-75
2023/06/10 08:12:15;;;;;;;;;;;;;;;21.13;56.10;100489.28;5115140;28;20394;-77
2023/06/10 08:15:20;;;;;;;;;;;;;;;21.24;55.87;100488.22;5104070;28;19976;-74
2023/06/10 08:18:23;;;;;;;;;;;;;;;21.27;56.15;100482.59;5116416;28;19927;-78
2023/06/10 08:21:28;;;;;;;;;;;;;;;21.34;55.87;100484.50;5116738;28;19923;-76
2023/06/10 08:24:32;;;;;;;;;;;;;;;21.54;55.47;100484.41;5103995;28;19922;-78
2023/06/10 08:27:36;;;;;;;;;;;;;;;21.86;55.13;100489.19;5116381;28;20004;-77
2023/06/10 08:30:42;;;;;;;;;;;;;;;21.73;54.14;100489.56;5116667;28;19922;-75
2023/06/10 08:33:46;;;;;;;;;;;;;;;21.69;54.91;100477.53;5116306;28;19927;-73
2023/06/10 08:36:53;;;;;;;;;;;;;;;21.71;54.38;100478.22;5116242;28;19922;-75
2023/06/10 08:39:56;;;;;;;;;;;;;;;21.83;54.87;100477.00;5103520;28;19993;-75
2023/06/10 08:42:59;;;;;;;;;;;;;;;22.08;53.25;100477.19;5116117;28;19973;-75
2023/06/10 08:46:03;;;;;;;;;;;;;;;22.11;53.71;100470.69;5116030;28;19923;-76
2023/06/10 08:49:08;;;;;;;;;;;;;;;22.21;52.82;100474.16;5115924;28;19922;-76
2023/06/10 08:52:15;;;;;;;;;;;;;;;22.36;52.89;100469.88;5103329;28;20431;-76
2023/06/10 08:55:26;;;;;;;;;;;;;;;22.46;52.94;100473.31;5115902;28;19923;-75
2023/06/10 08:58:29;;;;;;;;;;;;;;;22.40;52.77;100459.75;5115561;28;20401;-75
2023/06/10 09:01:33;;;;;;;;;;;;;;;22.58;53.44;100465.00;5115560;28;19923;-79
2023/06/10 09:04:36;;;;;;;;;;;;;;;22.75;53.30;100475.59;5115446;28;19945;-75
2023/06/10 09:07:40;;;;;;;;;;;;;;;22.91;52.76;100474.81;5115613;28;19939;-74
2023/06/10 09:10:45;;;;;;;;;;;;;;;22.85;52.70;100459.47;5091189;28;19922;-73
2023/06/10 09:13:51;;;;;;;;;;;;;;;23.03;52.67;100469.22;5102432;28;19966;-75
2023/06/10 09:16:57;;;;;;;;;;;;;;;23.04;52.23;100460.19;5115042;28;19926;-77
2023/06/10 09:20:11;;;;;;;;;;;;;;;23.16;53.20;100450.91;5115538;28;19926;-76
2023/06/10 09:23:18;;;;;;;;;;;;;;;23.02;51.56;100449.72;5114654;28;19984;-74
2023/06/10 09:26:33;;;;;;;;;;;;;;;23.18;52.70;100449.75;5114907;28;19976;-75
2023/06/10 09:29:57;;;;;;;;;;;;;;;23.33;51.51;100446.44;5102305;28;19939;-76
2023/06/10 09:33:03;;;;;;;;;;;;;;;23.84;49.66;100442.66;5114824;28;20307;-76
2023/06/10 09:36:06;;;;;;;;;;;;;;;24.00;48.85;100443.63;5114405;28;19977;-77
2023/06/10 09:39:28;;;;;;;;;;;;;;;23.83;49.14;100434.78;5115024;28;19922;-85
2023/06/10 09:43:44;;;;;;;;;;;;;;;23.86;48.28;100437.97;5112122;28;20316;-80
2023/06/10 10:06:10;;;;;;;;;;;;;;;24.63;44.27;100428.59;5114501;28;19989;-89
2023/06/10 10:09:49;;;;;;;;;;;;;;;24.83;43.24;100421.84;5114357;28;19922;-88
2023/06/10 10:13:02;;;;;;;;;;;;;;;24.75;46.17;100417.34;5114151;28;20026;-91
2023/06/10 10:16:11;;;;;;;;;;;;;;;25.05;44.17;100425.56;5114136;28;19999;-85
2023/06/10 10:25:12;;;;;;;;;;;;;;;25.07;44.63;100410.13;5013720;28;19924;-88
2023/06/10 10:28:17;;;;;;;;;;;;;;;25.43;41.68;100410.44;5000670;28;20419;-81
2023/06/10 10:35:16;;;;;;;;;;;;;;;25.43;41.85;100409.56;5012232;28;19956;-85
2023/06/10 10:38:24;;;;;;;;;;;;;;;25.65;39.37;100403.34;5011441;28;20337;-86
2023/06/10 10:45:58;;;;;;;;;;;;;;;25.87;39.30;100406.19;5113818;28;19938;-86
2023/06/10 10:50:14;;;;;;;;;;;;;;;25.89;38.70;100407.69;5113677;28;19999;-86
2023/06/10 10:54:31;;;;;;;;;;;;;;;25.75;39.34;100392.41;5113506;28;20346;-87
2023/06/10 10:59:26;;;;;;;;;;;;;;;26.03;36.60;100389.94;5111581;28;20058;-90
2023/06/10 11:02:53;;;;;;;;;;;;;;;25.97;37.44;100382.66;5114091;28;19927;-81
2023/06/10 11:05:59;;;;;;;;;;;;;;;26.21;37.26;100379.69;5113749;28;20480;-84
2023/06/10 11:09:23;;;;;;;;;;;;;;;26.17;37.28;100386.47;5100732;28;19984;-86
2023/06/10 11:12:42;;;;;;;;;;;;;;;26.24;37.39;100381.19;5113183;28;19945;-84
2023/06/10 11:16:19;;;;;;;;;;;;;;;26.35;37.95;100374.50;5113582;28;19922;-86
2023/06/10 11:28:39;;;;;;;;;;;;;;;26.62;36.05;100363.13;5113947;28;20287;-90
2023/06/10 11:32:55;;;;;;;;;;;;;;;26.76;36.13;100363.28;5097032;28;20411;-87
2023/06/10 11:50:30;;;;;;;;;;;;;;;27.16;36.16;100358.34;5014610;28;20360;-91
2023/06/10 14:07:49;;;;;;;;;;;;;;;32.02;26.48;100274.06;5921824;22;19934;-78
2023/06/10 14:10:52;;;;;;;;;;;;;;;31.93;26.28;100264.63;4974647;28;19996;-78
2023/06/10 14:14:00;;;;;;;;;;;;;;;32.14;27.00;100266.84;4974748;28;19929;-82
2023/06/10 14:17:04;;;;;;;;;;;;;;;31.59;26.17;100258.75;4975026;28;19925;-78
2023/06/10 14:20:08;;;;;;;;;;;;;;;32.35;26.03;100256.56;4974717;28;19929;-78
2023/06/10 14:23:11;;;;;;;;;;;;;;;33.17;23.47;100261.38;4974581;28;19965;-79
2023/06/10 14:26:17;;;;;;;;;;;;;;;35.63;20.78;100249.41;4974609;28;19928;-78
2023/06/10 14:29:20;;;;;;;;;;;;;;;38.25;19.50;100244.06;4974714;28;19925;-78
2023/06/10 14:32:23;;;;;;;;;;;;;;;38.67;19.25;100251.25;4974495;28;19977;-78
2023/06/10 14:35:30;;;;;;;;;;;;;;;40.08;18.90;100242.13;4974792;28;19925;-78
2023/06/10 14:38:34;;;;;;;;;;;;;;;41.00;18.24;100230.47;4974686;28;19925;-79
2023/06/10 14:41:38;;;;;;;;;;;;;;;42.07;15.56;100223.72;4974416;28;19993;-78
2023/06/10 14:44:41;;;;;;;;;;;;;;;42.70;15.40;100230.75;4974402;28;20396;-78
2023/06/10 14:47:45;;;;;;;;;;;;;;;41.20;15.95;100224.00;4962256;28;19972;-79
2023/06/10 14:50:50;;;;;;;;;;;;;;;41.53;15.97;100227.75;4974542;28;20397;-79
2023/06/10 14:53:54;;;;;;;;;;;;;;;41.99;15.26;100230.72;4974098;28;19929;-81
2023/06/10 14:56:57;;;;;;;;;;;;;;;42.82;14.42;100222.81;4974034;28;19980;-79
2023/06/10 15:00:00;;;;;;;;;;;;;;;42.26;14.25;100213.53;4974070;28;20441;-80
2023/06/10 15:03:03;;;;;;;;;;;;;;;42.90;14.06;100219.38;4974078;28;19941;-85
2023/06/10 15:10:13;;;;;;;;;;;;;;;43.03;14.01;100215.00;4975241;28;20057;-86
2023/06/10 15:18:05;;;;;;;;;;;;;;;38.88;17.12;100220.09;5668608;23;20023;-67
2023/06/10 15:21:08;;;;;;;;;;;;;;;38.35;17.86;100209.41;4976566;28;19972;-81
2023/06/10 15:24:11;;;;;;;;;;;;;;;36.60;20.15;100208.84;4978120;28;19948;-82
2023/06/10 15:27:17;;;;;;;;;;;;;;;40.08;16.95;100209.28;4966106;28;20293;-82
2023/06/10 15:30:34;;;;;;;;;;;;;;;41.90;15.77;100198.72;4966224;28;20357;-85
2023/06/10 15:33:39;;;;;;;;;;;;;;;41.80;15.81;100199.63;4977885;28;19929;-91
2023/06/10 16:24:51;;;;;;;;;;;;;;;33.72;23.14;100188.59;5513148;23;19930;-86
2023/06/10 16:27:58;;;;;;;;;;;;;;;33.24;24.16;100188.94;4965213;28;20357;-85
2023/06/10 17:22:35;;;;;;;;;;;;;;;30.24;28.93;100217.88;4954492;29;20033;-86
2023/06/10 17:44:24;;;;;;;;;;;;;;;29.35;30.66;100217.53;4934938;29;19942;-83
2023/06/10 18:06:50;;;;;;;;;;;;;;;28.50;33.62;100243.41;4889672;29;19963;-90
2023/06/10 19:05:27;;;;;;;;;;;;;;;26.28;41.83;100312.78;4932665;29;19974;-80
2023/06/10 19:08:47;;;;;;;;;;;;;;;26.21;42.70;100318.06;4921104;29;19969;-87
2023/06/10 19:15:51;;;;;;;;;;;;;;;26.04;42.59;100330.00;4931701;29;19954;-92
2023/06/10 19:18:55;;;;;;;;;;;;;;;26.03;41.42;100331.00;4914239;29;19927;-85
2023/06/10 19:22:25;;;;;;;;;;;;;;;25.97;41.26;100335.28;4913804;29;19945;-92
2023/06/10 19:25:39;;;;;;;;;;;;;;;26.04;41.39;100332.69;4911757;29;19974;-76
2023/06/10 19:28:44;;;;;;;;;;;;;;;25.90;41.71;100342.38;4920495;29;20354;-87
2023/06/10 19:45:17;;;;;;;;;;;;;;;25.27;41.69;100368.56;4955195;29;19925;-85
2023/06/10 19:48:21;;;;;;;;;;;;;;;25.20;42.40;100364.91;4953600;29;19925;-84
